Terminal Aerodrome Forecast
Issued by NWS Dodge City, KS

Home | Current Version | Previous Version | Text Only | Print | Product List | Glossary On
Versions: 1 2 3 4 5 6 7 8 9 10 11 12 13 14 15 16 17 18 19 20 21 22 23 24
891
FTUS43 KDDC 061120
TAFDDC
TAF
KDDC 061120Z 0612/0712 16012KT P6SM BKN250 WS003/17045KT
     FM061500 18018G28KT P6SM BKN250
     FM070500 17012G18KT P6SM SCT250 WS003/21045KT=

USA.gov is the U.S. government's official web portal to all federal, state and local government web resources and services.